createdAt,value
2018-11-06T00:01:43.622Z,41.60
2018-11-06T00:04:09.847Z,41.60
2018-11-06T00:06:36.095Z,41.70
2018-11-06T00:09:02.328Z,41.70
2018-11-06T00:11:28.535Z,41.60
2018-11-06T00:13:54.762Z,41.60
2018-11-06T00:16:20.991Z,41.60
2018-11-06T00:18:47.213Z,41.70
2018-11-06T00:21:13.446Z,41.60
2018-11-06T00:23:39.690Z,41.70
2018-11-06T00:26:06.417Z,41.60
2018-11-06T00:28:32.966Z,41.60
2018-11-06T00:30:59.182Z,41.70
2018-11-06T00:33:25.406Z,41.60
2018-11-06T00:35:51.635Z,41.60
2018-11-06T00:38:17.867Z,41.70
2018-11-06T00:40:44.115Z,41.70
2018-11-06T00:43:10.312Z,41.70
2018-11-06T00:45:36.545Z,41.70
2018-11-06T00:48:02.789Z,41.70
2018-11-06T00:50:29.007Z,41.70
2018-11-06T00:52:55.235Z,41.70
2018-11-06T00:55:21.471Z,41.70
2018-11-06T00:57:47.691Z,41.70
2018-11-06T01:00:13.915Z,41.70
2018-11-06T01:02:40.154Z,41.70
2018-11-06T01:05:06.378Z,41.70
2018-11-06T01:07:32.593Z,41.70
2018-11-06T01:09:58.830Z,41.70
2018-11-06T01:12:25.055Z,41.70
2018-11-06T01:14:51.282Z,41.70
2018-11-06T01:17:17.519Z,41.80
2018-11-06T01:19:43.741Z,41.80
2018-11-06T01:22:09.960Z,41.80
2018-11-06T01:24:36.198Z,42.40
2018-11-06T01:27:02.417Z,41.70
2018-11-06T01:29:28.650Z,41.70
2018-11-06T01:31:54.874Z,41.70
2018-11-06T01:34:21.107Z,41.70
2018-11-06T01:36:47.331Z,41.70
2018-11-06T01:39:13.562Z,41.70
2018-11-06T01:41:39.791Z,41.70
2018-11-06T01:44:06.019Z,41.70
2018-11-06T01:46:32.246Z,41.70
2018-11-06T01:48:58.479Z,41.70
2018-11-06T01:51:24.691Z,41.70
2018-11-06T01:53:50.935Z,41.70
2018-11-06T01:56:17.150Z,41.70
2018-11-06T01:58:43.387Z,41.70
2018-11-06T02:01:09.619Z,41.70
2018-11-06T02:03:35.847Z,41.70
2018-11-06T02:06:02.068Z,41.70
2018-11-06T02:08:28.302Z,41.70
2018-11-06T02:10:54.525Z,41.70
2018-11-06T02:13:20.758Z,41.70
2018-11-06T02:15:46.992Z,41.70
2018-11-06T02:18:13.223Z,42.40
2018-11-06T02:20:39.429Z,41.70
2018-11-06T02:23:05.658Z,41.70
2018-11-06T02:25:31.884Z,41.70
2018-11-06T02:27:58.123Z,41.70
2018-11-06T02:30:24.343Z,41.70
2018-11-06T02:32:50.575Z,41.60
2018-11-06T02:35:16.804Z,41.60
2018-11-06T02:37:43.025Z,41.70
2018-11-06T02:40:09.275Z,41.70
2018-11-06T02:42:35.483Z,41.70
2018-11-06T02:45:01.724Z,41.70
2018-11-06T02:47:27.947Z,41.70
2018-11-06T02:49:54.170Z,41.70
2018-11-06T02:52:20.399Z,42.30
2018-11-06T02:54:46.631Z,41.70
2018-11-06T02:57:14.083Z,41.70
2018-11-06T02:59:40.300Z,41.60
2018-11-06T03:02:06.541Z,41.70
2018-11-06T03:09:36.697Z,41.70
2018-11-06T03:12:02.915Z,41.60
2018-11-06T03:14:29.152Z,41.70
2018-11-06T03:16:55.485Z,41.70
2018-11-06T03:19:21.612Z,41.80
2018-11-06T03:21:47.825Z,41.70
2018-11-06T03:24:14.053Z,41.70
2018-11-06T03:26:40.278Z,41.60
2018-11-06T03:29:06.507Z,41.70
2018-11-06T03:31:32.739Z,41.60
2018-11-06T03:33:58.962Z,41.70
2018-11-06T03:36:25.187Z,41.70
2018-11-06T03:38:51.424Z,41.70
2018-11-06T03:41:17.644Z,41.70
2018-11-06T03:43:43.882Z,41.70
2018-11-06T03:46:10.096Z,41.70
2018-11-06T03:48:36.338Z,41.60
2018-11-06T03:51:02.559Z,41.70
2018-11-06T03:53:28.778Z,41.70
2018-11-06T03:55:55.018Z,41.70
2018-11-06T03:58:21.231Z,41.70
2018-11-06T04:00:47.465Z,41.70
2018-11-06T04:03:13.691Z,41.70
2018-11-06T04:05:39.919Z,41.70
2018-11-06T04:08:06.147Z,41.70
2018-11-06T04:10:32.376Z,41.70
2018-11-06T04:12:58.604Z,41.70
2018-11-06T04:15:24.836Z,41.70
2018-11-06T04:17:51.063Z,42.40
2018-11-06T04:20:17.295Z,41.70
2018-11-06T04:22:43.511Z,41.70
2018-11-06T04:25:09.743Z,41.70
2018-11-06T04:27:35.972Z,41.70
2018-11-06T04:30:02.202Z,41.70
2018-11-06T04:32:28.420Z,41.70
2018-11-06T04:34:54.648Z,41.70
2018-11-06T04:37:20.884Z,41.70
2018-11-06T04:39:47.102Z,41.80
2018-11-06T04:42:13.336Z,41.80
2018-11-06T04:44:39.568Z,41.80
2018-11-06T04:47:05.791Z,41.90
2018-11-06T04:49:32.014Z,41.90
2018-11-06T04:51:58.243Z,41.90
2018-11-06T04:54:24.477Z,41.90
2018-11-06T04:56:50.695Z,41.90
2018-11-06T04:59:16.927Z,41.90
2018-11-06T05:01:43.163Z,41.90
2018-11-06T05:04:09.383Z,41.90
2018-11-06T05:06:35.628Z,41.90
2018-11-06T05:09:01.847Z,41.90
2018-11-06T05:11:28.068Z,41.90
2018-11-06T05:13:54.335Z,41.90
2018-11-06T05:16:20.526Z,41.90
2018-11-06T05:18:46.752Z,41.90
2018-11-06T05:21:12.967Z,41.90
2018-11-06T05:23:39.203Z,41.90
2018-11-06T05:26:05.431Z,41.90
2018-11-06T05:28:31.654Z,41.90
2018-11-06T05:30:57.883Z,41.90
2018-11-06T05:33:24.111Z,41.90
2018-11-06T05:35:50.338Z,41.90
2018-11-06T05:38:16.574Z,41.90
2018-11-06T05:40:42.805Z,41.90
2018-11-06T05:43:09.018Z,42.00
2018-11-06T05:45:35.300Z,41.90
2018-11-06T05:48:01.473Z,41.90
2018-11-06T05:50:27.706Z,41.90
2018-11-06T05:52:53.935Z,41.90
2018-11-06T05:55:20.163Z,41.90
2018-11-06T05:57:46.387Z,41.90
2018-11-06T06:00:12.623Z,41.90
2018-11-06T06:02:38.834Z,41.90
2018-11-06T06:05:05.073Z,41.90
2018-11-06T06:07:31.296Z,41.90
2018-11-06T06:09:57.533Z,41.90
2018-11-06T06:12:23.745Z,41.90
2018-11-06T06:14:49.972Z,41.90
2018-11-06T06:17:16.226Z,41.90
2018-11-06T06:19:42.434Z,41.90
2018-11-06T06:22:08.663Z,41.90
2018-11-06T06:24:34.891Z,42.00
2018-11-06T06:27:01.115Z,41.90
2018-11-06T06:29:27.343Z,41.90
2018-11-06T06:31:53.571Z,41.90
2018-11-06T06:34:19.847Z,41.90
2018-11-06T06:36:46.031Z,41.90
2018-11-06T06:39:12.256Z,41.90
2018-11-06T06:41:38.485Z,41.90
2018-11-06T06:44:04.712Z,41.90
2018-11-06T06:46:31.027Z,41.90
2018-11-06T06:48:57.167Z,42.00
2018-11-06T06:51:23.399Z,41.90
2018-11-06T06:53:49.628Z,42.00
2018-11-06T06:56:15.854Z,42.00
2018-11-06T06:58:43.838Z,41.90
2018-11-06T07:01:10.358Z,42.00
2018-11-06T07:03:36.594Z,42.00
2018-11-06T07:06:02.802Z,42.00
2018-11-06T07:08:29.031Z,42.00
2018-11-06T07:10:55.258Z,42.00
2018-11-06T07:13:21.487Z,42.00
2018-11-06T07:15:47.719Z,42.00
2018-11-06T07:18:13.947Z,42.00
2018-11-06T07:20:40.171Z,42.00
2018-11-06T07:23:06.403Z,42.10
2018-11-06T07:25:32.624Z,42.10
2018-11-06T07:27:58.863Z,42.00
2018-11-06T07:30:25.087Z,42.00
2018-11-06T07:32:51.307Z,42.00
2018-11-06T07:35:17.649Z,41.90
2018-11-06T07:37:43.768Z,42.00
2018-11-06T07:40:09.999Z,42.00
2018-11-06T07:42:36.230Z,42.00
2018-11-06T07:45:02.860Z,42.00
2018-11-06T07:47:29.079Z,42.30
2018-11-06T07:49:55.346Z,42.00
2018-11-06T07:52:21.540Z,42.00
2018-11-06T07:54:47.773Z,42.00
2018-11-06T07:57:13.990Z,42.00
2018-11-06T07:59:40.223Z,42.10
2018-11-06T08:02:06.452Z,42.10
2018-11-06T08:04:32.683Z,42.00
2018-11-06T08:06:58.910Z,42.10
2018-11-06T08:09:25.251Z,42.00
2018-11-06T08:11:51.399Z,42.00
2018-11-06T08:14:17.635Z,42.60
2018-11-06T08:16:43.820Z,42.00
2018-11-06T08:19:10.046Z,42.10
2018-11-06T08:21:36.271Z,42.00
2018-11-06T08:24:02.618Z,42.10
2018-11-06T08:26:28.727Z,42.10
2018-11-06T08:28:54.951Z,42.10
2018-11-06T08:31:21.503Z,42.10
2018-11-06T08:33:50.281Z,42.10
2018-11-06T08:36:16.522Z,42.20
2018-11-06T08:38:42.728Z,42.20
2018-11-06T08:41:08.956Z,42.20
2018-11-06T08:43:35.195Z,42.20
2018-11-06T08:46:02.240Z,42.20
2018-11-06T08:48:28.468Z,42.20
2018-11-06T08:50:54.697Z,42.20
2018-11-06T08:53:26.250Z,42.20
2018-11-06T08:55:52.479Z,42.20
2018-11-06T09:00:50.260Z,42.30
2018-11-06T09:03:16.487Z,42.30
2018-11-06T09:05:42.716Z,42.30
2018-11-06T09:08:08.943Z,42.30
2018-11-06T09:10:35.176Z,42.30
2018-11-06T09:13:01.405Z,42.20
2018-11-06T09:15:27.631Z,42.30
2018-11-06T09:17:53.856Z,42.20
2018-11-06T09:20:20.094Z,42.30
2018-11-06T09:22:46.342Z,42.90
2018-11-06T09:25:12.546Z,42.30
2018-11-06T09:27:38.784Z,42.30
2018-11-06T09:30:05.016Z,42.40
2018-11-06T09:32:31.243Z,42.40
2018-11-06T09:34:57.467Z,42.40
2018-11-06T09:37:23.703Z,42.40
2018-11-06T09:39:49.942Z,42.40
2018-11-06T09:42:16.163Z,42.50
2018-11-06T09:44:42.391Z,42.40
2018-11-06T09:47:08.622Z,42.50
2018-11-06T09:49:34.850Z,42.50
2018-11-06T09:52:01.094Z,42.40
2018-11-06T09:54:27.310Z,42.50
2018-11-06T09:56:53.539Z,42.40
2018-11-06T09:59:19.771Z,42.50
2018-11-06T10:01:46.003Z,42.50
2018-11-06T10:04:12.231Z,42.60
2018-11-06T10:06:38.679Z,42.60
2018-11-06T10:09:04.733Z,42.50
2018-11-06T10:11:30.966Z,42.60
2018-11-06T10:13:57.152Z,42.60
2018-11-06T10:16:23.383Z,42.60
2018-11-06T10:18:49.616Z,42.60
2018-11-06T10:21:15.885Z,42.60
2018-11-06T10:23:42.063Z,42.60
2018-11-06T10:26:08.306Z,42.60
2018-11-06T10:28:34.526Z,42.60
2018-11-06T10:31:00.756Z,42.60
2018-11-06T10:33:26.987Z,42.60
2018-11-06T10:35:53.219Z,43.30
2018-11-06T10:38:19.456Z,42.60
2018-11-06T10:40:45.678Z,43.30
2018-11-06T10:43:11.904Z,42.70
2018-11-06T10:45:38.135Z,42.70
2018-11-06T10:48:04.359Z,42.70
2018-11-06T10:50:30.587Z,42.70
2018-11-06T10:52:56.819Z,42.70
2018-11-06T10:55:23.876Z,42.80
2018-11-06T10:57:50.100Z,43.20
2018-11-06T11:00:16.333Z,42.90
2018-11-06T11:02:42.558Z,42.90
2018-11-06T11:05:08.783Z,42.90
2018-11-06T11:07:35.010Z,42.90
2018-11-06T11:10:01.235Z,42.90
2018-11-06T11:12:27.467Z,43.00
2018-11-06T11:14:53.694Z,42.90
2018-11-06T11:17:19.925Z,43.00
2018-11-06T11:19:46.155Z,42.90
2018-11-06T11:22:12.372Z,42.90
2018-11-06T11:24:38.608Z,43.00
2018-11-06T11:27:04.838Z,42.90
2018-11-06T11:29:31.055Z,43.00
2018-11-06T11:31:57.291Z,43.00
2018-11-06T11:34:23.519Z,43.00
2018-11-06T11:36:49.746Z,43.00
2018-11-06T11:39:15.975Z,43.10
2018-11-06T11:41:42.203Z,43.10
2018-11-06T11:44:08.431Z,43.10
2018-11-06T11:46:34.655Z,43.10
2018-11-06T11:49:00.891Z,43.20
2018-11-06T11:51:27.124Z,43.10
2018-11-06T11:53:53.351Z,43.10
2018-11-06T11:56:19.579Z,43.20
2018-11-06T11:58:47.684Z,43.20
2018-11-06T12:01:14.078Z,43.20
2018-11-06T12:03:40.302Z,43.30
2018-11-06T12:06:06.538Z,43.90
2018-11-06T12:08:32.759Z,43.30
2018-11-06T12:10:58.992Z,43.30
2018-11-06T12:13:25.215Z,43.30
2018-11-06T12:15:51.439Z,43.40
2018-11-06T12:18:17.706Z,43.40
2018-11-06T12:20:43.905Z,43.40
2018-11-06T12:23:10.127Z,43.40
2018-11-06T12:25:36.552Z,43.50
2018-11-06T12:28:02.592Z,43.50
2018-11-06T12:30:28.815Z,43.50
2018-11-06T12:32:55.046Z,43.40
2018-11-06T12:35:21.270Z,43.50
2018-11-06T12:37:47.498Z,44.20
2018-11-06T12:40:13.722Z,43.60
2018-11-06T12:42:39.955Z,43.60
2018-11-06T12:45:06.186Z,43.60
2018-11-06T12:47:32.407Z,43.70
2018-11-06T12:49:58.648Z,43.70
2018-11-06T12:52:24.868Z,43.80
2018-11-06T12:54:51.091Z,43.60
2018-11-06T12:57:17.326Z,43.80
2018-11-06T12:59:43.551Z,43.80
2018-11-06T13:02:09.779Z,43.80
2018-11-06T13:04:36.013Z,43.80
2018-11-06T13:07:02.244Z,43.80
2018-11-06T13:09:28.467Z,43.90
2018-11-06T13:11:54.690Z,44.00
2018-11-06T13:14:20.924Z,44.00
2018-11-06T13:16:47.185Z,44.10
2018-11-06T13:19:13.387Z,44.00
2018-11-06T13:21:39.606Z,44.10
2018-11-06T13:24:05.826Z,44.10
2018-11-06T13:26:32.222Z,44.20
2018-11-06T13:28:58.299Z,44.30
2018-11-06T13:31:24.522Z,44.30
2018-11-06T13:33:50.747Z,44.40
2018-11-06T13:36:16.974Z,44.40
2018-11-06T13:38:43.211Z,44.40
2018-11-06T13:41:09.426Z,44.50
2018-11-06T13:43:35.845Z,44.50
2018-11-06T13:46:01.893Z,44.60
2018-11-06T13:48:28.119Z,44.50
2018-11-06T13:50:54.340Z,44.60
2018-11-06T13:53:20.578Z,44.60
2018-11-06T13:55:46.800Z,44.70
2018-11-06T13:58:13.029Z,44.80
2018-11-06T14:00:39.263Z,44.80
2018-11-06T14:03:05.485Z,44.90
2018-11-06T14:05:31.719Z,45.00
2018-11-06T14:07:57.939Z,45.00
2018-11-06T14:10:24.167Z,45.00
2018-11-06T14:12:50.394Z,45.00
2018-11-06T14:15:16.669Z,45.20
2018-11-06T14:17:43.264Z,45.20
2018-11-06T14:20:09.488Z,45.20
2018-11-06T14:22:35.709Z,45.30
2018-11-06T14:25:01.939Z,45.30
2018-11-06T14:27:28.237Z,45.30
2018-11-06T14:29:54.395Z,45.30
2018-11-06T14:32:20.618Z,45.40
2018-11-06T14:34:46.851Z,45.40
2018-11-06T14:37:13.096Z,45.50
2018-11-06T14:39:39.312Z,45.50
2018-11-06T14:42:05.560Z,45.50
2018-11-06T14:44:31.762Z,45.50
2018-11-06T14:46:57.984Z,45.60
2018-11-06T14:49:24.316Z,45.60
2018-11-06T14:51:50.458Z,45.70
2018-11-06T14:54:16.671Z,45.70
2018-11-06T14:56:42.911Z,45.70
2018-11-06T14:59:09.147Z,45.70
2018-11-06T15:01:35.363Z,45.80
2018-11-06T15:04:01.588Z,45.80
2018-11-06T15:06:27.817Z,45.80
2018-11-06T15:08:54.037Z,45.90
2018-11-06T15:11:20.271Z,46.00
2018-11-06T15:13:46.500Z,46.00
2018-11-06T15:16:12.739Z,46.00
2018-11-06T15:18:38.951Z,46.00
2018-11-06T15:21:05.185Z,46.00
2018-11-06T15:23:31.415Z,46.10
2018-11-06T15:25:57.647Z,46.10
2018-11-06T15:28:23.887Z,46.10
2018-11-06T15:30:50.106Z,46.10
2018-11-06T15:33:16.336Z,46.10
2018-11-06T15:35:42.554Z,46.20
2018-11-06T15:38:08.791Z,46.20
2018-11-06T15:40:35.019Z,46.10
2018-11-06T15:43:01.260Z,46.20
2018-11-06T15:45:27.480Z,46.00
2018-11-06T15:47:53.710Z,46.20
2018-11-06T15:50:19.955Z,46.10
2018-11-06T15:52:46.171Z,46.10
2018-11-06T15:55:12.396Z,46.10
2018-11-06T15:57:38.634Z,46.20
2018-11-06T16:00:04.865Z,46.20
2018-11-06T16:02:31.090Z,46.20
2018-11-06T16:04:57.320Z,46.20
2018-11-06T16:07:23.553Z,46.20
2018-11-06T16:09:49.773Z,46.10
2018-11-06T16:12:16.011Z,46.20
2018-11-06T16:14:42.240Z,46.20
2018-11-06T16:17:08.465Z,46.20
2018-11-06T16:19:34.710Z,46.10
2018-11-06T16:22:00.935Z,46.10
2018-11-06T16:24:27.156Z,46.20
2018-11-06T16:26:53.387Z,46.20
2018-11-06T16:29:19.619Z,46.10
2018-11-06T16:31:45.853Z,46.10
2018-11-06T16:34:12.081Z,46.10
2018-11-06T16:36:38.316Z,46.10
2018-11-06T16:39:04.539Z,46.10
2018-11-06T16:41:30.822Z,46.10
2018-11-06T16:43:56.995Z,46.00
2018-11-06T16:46:23.227Z,46.10
2018-11-06T16:48:49.455Z,46.00
2018-11-06T16:51:15.678Z,46.10
2018-11-06T16:53:41.903Z,46.00
2018-11-06T16:56:08.139Z,46.00
2018-11-06T16:58:34.369Z,46.00
2018-11-06T17:01:00.871Z,46.00
2018-11-06T17:13:38.300Z,46.00
2018-11-06T17:16:04.606Z,46.00
2018-11-06T17:18:30.846Z,46.00
2018-11-06T17:20:57.075Z,46.00
2018-11-06T17:23:23.300Z,46.00
2018-11-06T17:25:49.570Z,46.00
2018-11-06T17:28:15.760Z,46.00
2018-11-06T17:30:42.000Z,46.00
2018-11-06T17:33:08.215Z,46.00
2018-11-06T17:35:34.456Z,46.00
2018-11-06T17:38:00.678Z,45.90
2018-11-06T17:40:26.904Z,45.90
2018-11-06T17:42:53.131Z,45.90
2018-11-06T17:45:19.436Z,45.90
2018-11-06T17:47:45.602Z,45.90
2018-11-06T17:50:11.830Z,45.90
2018-11-06T17:52:38.059Z,45.90
2018-11-06T17:55:04.316Z,45.90
2018-11-06T17:57:30.515Z,45.90
2018-11-06T17:59:56.751Z,45.90
2018-11-06T18:02:22.978Z,45.90
2018-11-06T18:04:49.207Z,45.90
2018-11-06T18:07:15.431Z,46.00
2018-11-06T18:09:41.668Z,46.00
2018-11-06T18:12:07.902Z,46.00
2018-11-06T18:14:34.123Z,46.10
2018-11-06T18:17:00.350Z,46.00
2018-11-06T18:19:26.600Z,46.10
2018-11-06T18:21:52.825Z,46.00
2018-11-06T18:24:19.047Z,46.00
2018-11-06T18:26:45.292Z,46.00
2018-11-06T18:29:11.524Z,46.00
2018-11-06T18:31:37.796Z,45.90
2018-11-06T18:34:03.974Z,45.90
2018-11-06T18:36:30.189Z,46.00
2018-11-06T18:38:56.429Z,46.00
2018-11-06T18:41:22.655Z,45.90
2018-11-06T18:43:48.887Z,46.00
2018-11-06T18:46:15.111Z,45.90
2018-11-06T18:48:41.339Z,45.90
2018-11-06T18:51:07.568Z,45.90
2018-11-06T18:53:33.809Z,45.90
2018-11-06T18:56:00.032Z,45.90
2018-11-06T18:58:26.280Z,45.80
2018-11-06T19:00:52.501Z,45.80
2018-11-06T19:03:18.728Z,45.80
2018-11-06T19:05:44.960Z,45.80
2018-11-06T19:08:11.179Z,45.80
2018-11-06T19:10:37.423Z,45.80
2018-11-06T19:13:03.643Z,45.80
2018-11-06T19:15:29.880Z,45.80
2018-11-06T19:17:56.095Z,45.80
2018-11-06T19:20:22.330Z,45.70
2018-11-06T19:22:48.571Z,45.70
2018-11-06T19:25:14.792Z,45.70
2018-11-06T19:27:41.023Z,45.70
2018-11-06T19:30:07.244Z,45.70
2018-11-06T19:32:33.479Z,45.70
2018-11-06T19:34:59.708Z,45.70
2018-11-06T19:37:25.938Z,45.60
2018-11-06T19:39:52.287Z,45.60
2018-11-06T19:42:18.810Z,45.60
2018-11-06T19:44:45.039Z,45.60
2018-11-06T19:47:11.344Z,45.60
2018-11-06T19:49:37.499Z,45.60
2018-11-06T19:52:03.733Z,45.50
2018-11-06T19:54:29.967Z,45.50
2018-11-06T19:56:56.253Z,45.50
2018-11-06T19:59:22.462Z,45.50
2018-11-06T20:01:48.646Z,45.50
2018-11-06T20:04:14.880Z,45.40
2018-11-06T20:06:41.107Z,45.40
2018-11-06T20:09:07.337Z,45.40
2018-11-06T20:11:33.584Z,45.40
2018-11-06T20:13:59.799Z,45.40
2018-11-06T20:16:26.020Z,45.40
2018-11-06T20:18:52.271Z,45.40
2018-11-06T20:21:18.532Z,45.30
2018-11-06T20:23:44.794Z,45.30
2018-11-06T20:26:10.943Z,45.30
2018-11-06T20:28:37.176Z,45.40
2018-11-06T20:31:08.735Z,45.30
2018-11-06T20:33:35.126Z,45.30
2018-11-06T20:36:01.192Z,45.30
2018-11-06T20:38:27.422Z,45.30
2018-11-06T20:40:53.642Z,45.30
2018-11-06T20:43:19.954Z,45.30
2018-11-06T20:45:46.114Z,45.30
2018-11-06T20:48:12.344Z,45.30
2018-11-06T20:50:38.569Z,45.30
2018-11-06T20:53:04.906Z,45.30
2018-11-06T20:55:31.120Z,45.30
2018-11-06T20:57:57.261Z,45.30
2018-11-06T21:00:23.486Z,45.30
2018-11-06T21:02:49.715Z,45.30
2018-11-06T21:05:15.950Z,45.30
2018-11-06T21:07:42.184Z,45.30
2018-11-06T21:10:08.411Z,45.30
2018-11-06T21:12:34.643Z,45.30
2018-11-06T21:15:00.867Z,45.30
2018-11-06T21:17:27.097Z,45.30
2018-11-06T21:19:53.418Z,45.30
2018-11-06T21:22:19.552Z,45.30
2018-11-06T21:24:45.819Z,45.30
2018-11-06T21:27:12.170Z,45.20
2018-11-06T21:29:38.262Z,45.20
2018-11-06T21:32:04.471Z,45.20
2018-11-06T21:34:30.707Z,45.20
2018-11-06T21:36:56.935Z,45.20
2018-11-06T21:39:23.163Z,45.20
2018-11-06T21:41:49.393Z,45.20
2018-11-06T21:44:15.635Z,45.20
2018-11-06T21:46:41.856Z,45.20
2018-11-06T21:49:08.124Z,45.20
2018-11-06T21:51:34.316Z,45.10
2018-11-06T21:54:00.538Z,45.10
2018-11-06T21:56:26.779Z,45.10
2018-11-06T21:58:53.012Z,45.10
2018-11-06T22:01:19.239Z,45.10
2018-11-06T22:03:45.467Z,45.10
2018-11-06T22:06:11.691Z,45.70
2018-11-06T22:08:37.934Z,45.10
2018-11-06T22:11:05.922Z,45.10
2018-11-06T22:13:32.438Z,45.10
2018-11-06T22:15:58.667Z,45.10
2018-11-06T22:18:24.890Z,45.10
2018-11-06T22:20:51.127Z,45.10
2018-11-06T22:23:17.358Z,45.10
2018-11-06T22:25:43.583Z,45.10
2018-11-06T22:28:09.815Z,45.10
2018-11-06T22:30:36.039Z,45.10
2018-11-06T22:33:02.336Z,45.10
2018-11-06T22:35:28.503Z,45.10
2018-11-06T22:37:54.784Z,45.70
2018-11-06T22:40:26.702Z,45.10
2018-11-06T22:45:24.883Z,45.10
2018-11-06T22:47:51.127Z,45.10
2018-11-06T22:50:17.348Z,45.10
2018-11-06T22:52:43.578Z,45.10
2018-11-06T22:55:09.811Z,45.00
2018-11-06T22:57:36.031Z,45.00
2018-11-06T23:00:02.271Z,45.00
2018-11-06T23:02:28.522Z,45.00
2018-11-06T23:04:54.731Z,45.00
2018-11-06T23:07:20.962Z,45.00
2018-11-06T23:09:47.203Z,45.00
2018-11-06T23:12:13.423Z,44.90
2018-11-06T23:14:39.651Z,44.90
2018-11-06T23:17:05.880Z,44.90
2018-11-06T23:19:32.111Z,44.90
2018-11-06T23:21:58.349Z,44.90
2018-11-06T23:24:24.571Z,44.90
2018-11-06T23:26:50.800Z,44.90
2018-11-06T23:29:17.684Z,44.90
2018-11-06T23:31:43.889Z,44.90
2018-11-06T23:34:10.312Z,44.90
2018-11-06T23:36:36.559Z,44.90
2018-11-06T23:39:02.767Z,44.90
2018-11-06T23:41:28.994Z,44.90
2018-11-06T23:43:55.223Z,44.90
2018-11-06T23:46:21.465Z,44.90
2018-11-06T23:48:47.691Z,44.90
2018-11-06T23:51:13.912Z,44.90
2018-11-06T23:53:40.155Z,44.90
2018-11-06T23:56:06.369Z,44.90
2018-11-06T23:58:32.617Z,44.90
